sensor_id;sensor_type;location;lat;lon;timestamp;P1;durP1;ratioP1;P2;durP2;ratioP2
67776;SDS011;54576;52.020;5.536;2023-01-31T00:01:18;21.13;;;2.78;;
67776;SDS011;54576;52.020;5.536;2023-01-31T00:03:45;28.08;;;3.30;;
67776;SDS011;54576;52.020;5.536;2023-01-31T00:08:48;27.52;;;3.28;;
67776;SDS011;54576;52.020;5.536;2023-01-31T00:11:16;23.13;;;2.70;;
67776;SDS011;54576;52.020;5.536;2023-01-31T00:13:46;21.90;;;2.78;;
67776;SDS011;54576;52.020;5.536;2023-01-31T00:16:12;24.85;;;4.35;;
67776;SDS011;54576;52.020;5.536;2023-01-31T00:18:41;40.20;;;3.63;;
67776;SDS011;54576;52.020;5.536;2023-01-31T00:21:12;20.48;;;3.33;;
67776;SDS011;54576;52.020;5.536;2023-01-31T00:23:42;31.05;;;4.07;;
67776;SDS011;54576;52.020;5.536;2023-01-31T00:26:10;25.48;;;3.30;;
67776;SDS011;54576;52.020;5.536;2023-01-31T00:28:36;27.15;;;3.67;;
67776;SDS011;54576;52.020;5.536;2023-01-31T00:31:02;23.63;;;2.88;;
67776;SDS011;54576;52.020;5.536;2023-01-31T00:33:28;18.98;;;3.45;;
67776;SDS011;54576;52.020;5.536;2023-01-31T00:35:54;22.00;;;2.90;;
67776;SDS011;54576;52.020;5.536;2023-01-31T00:38:20;29.02;;;3.88;;
67776;SDS011;54576;52.020;5.536;2023-01-31T00:40:52;20.17;;;2.92;;
67776;SDS011;54576;52.020;5.536;2023-01-31T00:43:18;19.35;;;3.30;;
67776;SDS011;54576;52.020;5.536;2023-01-31T00:45:44;27.55;;;3.55;;
67776;SDS011;54576;52.020;5.536;2023-01-31T00:48:11;26.02;;;2.83;;
67776;SDS011;54576;52.020;5.536;2023-01-31T00:50:37;25.02;;;2.65;;
67776;SDS011;54576;52.020;5.536;2023-01-31T00:53:02;17.25;;;3.05;;
67776;SDS011;54576;52.020;5.536;2023-01-31T00:55:28;21.98;;;2.65;;
67776;SDS011;54576;52.020;5.536;2023-01-31T00:57:54;22.67;;;3.22;;
67776;SDS011;54576;52.020;5.536;2023-01-31T01:00:19;21.25;;;2.95;;
67776;SDS011;54576;52.020;5.536;2023-01-31T01:02:46;21.33;;;3.17;;
67776;SDS011;54576;52.020;5.536;2023-01-31T01:05:12;27.38;;;2.55;;
67776;SDS011;54576;52.020;5.536;2023-01-31T01:07:38;20.27;;;2.72;;
67776;SDS011;54576;52.020;5.536;2023-01-31T01:10:04;26.67;;;2.33;;
67776;SDS011;54576;52.020;5.536;2023-01-31T01:12:30;21.00;;;3.10;;
67776;SDS011;54576;52.020;5.536;2023-01-31T01:14:56;21.25;;;3.50;;
67776;SDS011;54576;52.020;5.536;2023-01-31T01:17:22;26.02;;;3.20;;
67776;SDS011;54576;52.020;5.536;2023-01-31T01:19:47;18.50;;;3.35;;
67776;SDS011;54576;52.020;5.536;2023-01-31T01:22:13;28.27;;;3.63;;
67776;SDS011;54576;52.020;5.536;2023-01-31T01:24:41;19.85;;;2.83;;
67776;SDS011;54576;52.020;5.536;2023-01-31T01:27:11;24.17;;;3.28;;
67776;SDS011;54576;52.020;5.536;2023-01-31T01:29:37;32.70;;;2.78;;
67776;SDS011;54576;52.020;5.536;2023-01-31T01:32:06;18.05;;;3.03;;
67776;SDS011;54576;52.020;5.536;2023-01-31T01:34:33;19.90;;;2.73;;
67776;SDS011;54576;52.020;5.536;2023-01-31T01:36:59;29.00;;;2.97;;
67776;SDS011;54576;52.020;5.536;2023-01-31T01:39:25;23.88;;;2.78;;
67776;SDS011;54576;52.020;5.536;2023-01-31T01:41:54;29.85;;;3.50;;
67776;SDS011;54576;52.020;5.536;2023-01-31T01:47:32;23.02;;;3.20;;
67776;SDS011;54576;52.020;5.536;2023-01-31T01:53:09;23.80;;;3.20;;
67776;SDS011;54576;52.020;5.536;2023-01-31T01:55:45;24.70;;;3.35;;
67776;SDS011;54576;52.020;5.536;2023-01-31T02:00:56;28.77;;;3.35;;
67776;SDS011;54576;52.020;5.536;2023-01-31T02:03:22;15.93;;;3.47;;
67776;SDS011;54576;52.020;5.536;2023-01-31T02:06:05;19.88;;;2.95;;
67776;SDS011;54576;52.020;5.536;2023-01-31T02:08:32;29.58;;;3.40;;
67776;SDS011;54576;52.020;5.536;2023-01-31T02:13:33;19.88;;;3.13;;
67776;SDS011;54576;52.020;5.536;2023-01-31T02:16:02;21.40;;;2.83;;
67776;SDS011;54576;52.020;5.536;2023-01-31T02:21:13;24.08;;;2.90;;
67776;SDS011;54576;52.020;5.536;2023-01-31T02:35:15;24.23;;;3.38;;
67776;SDS011;54576;52.020;5.536;2023-01-31T02:37:49;21.13;;;3.47;;
67776;SDS011;54576;52.020;5.536;2023-01-31T02:40:25;26.48;;;3.80;;
67776;SDS011;54576;52.020;5.536;2023-01-31T02:45:51;30.05;;;3.47;;
67776;SDS011;54576;52.020;5.536;2023-01-31T02:51:16;28.63;;;4.00;;
67776;SDS011;54576;52.020;5.536;2023-01-31T02:53:48;20.20;;;3.30;;
67776;SDS011;54576;52.020;5.536;2023-01-31T02:58:52;29.38;;;4.68;;
67776;SDS011;54576;52.020;5.536;2023-01-31T03:01:45;26.27;;;3.95;;
67776;SDS011;54576;52.020;5.536;2023-01-31T03:04:11;35.00;;;3.78;;
67776;SDS011;54576;52.020;5.536;2023-01-31T03:06:58;24.58;;;4.47;;
67776;SDS011;54576;52.020;5.536;2023-01-31T03:12:21;25.98;;;3.83;;
67776;SDS011;54576;52.020;5.536;2023-01-31T03:18:14;30.23;;;4.25;;
67776;SDS011;54576;52.020;5.536;2023-01-31T03:23:38;29.70;;;4.82;;
67776;SDS011;54576;52.020;5.536;2023-01-31T03:26:09;33.90;;;5.90;;
67776;SDS011;54576;52.020;5.536;2023-01-31T03:28:39;25.35;;;5.20;;
67776;SDS011;54576;52.020;5.536;2023-01-31T03:33:39;26.67;;;4.82;;
67776;SDS011;54576;52.020;5.536;2023-01-31T03:36:16;21.83;;;5.80;;
67776;SDS011;54576;52.020;5.536;2023-01-31T03:39:05;27.30;;;4.30;;
67776;SDS011;54576;52.020;5.536;2023-01-31T03:47:39;22.05;;;5.05;;
67776;SDS011;54576;52.020;5.536;2023-01-31T03:50:09;25.77;;;5.60;;
67776;SDS011;54576;52.020;5.536;2023-01-31T03:52:44;38.47;;;5.75;;
67776;SDS011;54576;52.020;5.536;2023-01-31T03:55:32;41.47;;;7.20;;
67776;SDS011;54576;52.020;5.536;2023-01-31T03:58:01;34.00;;;6.32;;
67776;SDS011;54576;52.020;5.536;2023-01-31T04:00:32;30.70;;;5.70;;
67776;SDS011;54576;52.020;5.536;2023-01-31T04:03:43;27.92;;;5.60;;
67776;SDS011;54576;52.020;5.536;2023-01-31T04:05:53;33.53;;;5.70;;
67776;SDS011;54576;52.020;5.536;2023-01-31T04:08:19;38.92;;;6.55;;
67776;SDS011;54576;52.020;5.536;2023-01-31T04:10:46;37.55;;;7.40;;
67776;SDS011;54576;52.020;5.536;2023-01-31T04:13:12;23.45;;;5.65;;
67776;SDS011;54576;52.020;5.536;2023-01-31T04:15:37;36.60;;;6.80;;
67776;SDS011;54576;52.020;5.536;2023-01-31T04:18:03;41.78;;;7.35;;
67776;SDS011;54576;52.020;5.536;2023-01-31T04:20:30;43.17;;;6.60;;
67776;SDS011;54576;52.020;5.536;2023-01-31T04:22:56;36.47;;;6.82;;
67776;SDS011;54576;52.020;5.536;2023-01-31T04:25:23;48.33;;;7.40;;
67776;SDS011;54576;52.020;5.536;2023-01-31T04:27:50;48.10;;;7.32;;
67776;SDS011;54576;52.020;5.536;2023-01-31T04:30:16;36.95;;;7.47;;
67776;SDS011;54576;52.020;5.536;2023-01-31T04:32:42;39.63;;;7.28;;
67776;SDS011;54576;52.020;5.536;2023-01-31T04:35:08;35.80;;;7.35;;
67776;SDS011;54576;52.020;5.536;2023-01-31T04:37:33;34.92;;;8.23;;
67776;SDS011;54576;52.020;5.536;2023-01-31T04:39:59;45.20;;;8.32;;
67776;SDS011;54576;52.020;5.536;2023-01-31T04:42:29;32.75;;;7.05;;
67776;SDS011;54576;52.020;5.536;2023-01-31T04:44:56;37.25;;;7.97;;
67776;SDS011;54576;52.020;5.536;2023-01-31T04:47:21;34.45;;;7.72;;
67776;SDS011;54576;52.020;5.536;2023-01-31T04:49:47;31.70;;;8.13;;
67776;SDS011;54576;52.020;5.536;2023-01-31T04:52:12;33.50;;;7.45;;
67776;SDS011;54576;52.020;5.536;2023-01-31T04:54:38;34.97;;;7.68;;
67776;SDS011;54576;52.020;5.536;2023-01-31T04:57:06;37.08;;;7.32;;
67776;SDS011;54576;52.020;5.536;2023-01-31T04:59:35;32.05;;;8.35;;
67776;SDS011;54576;52.020;5.536;2023-01-31T05:02:00;32.63;;;8.23;;
67776;SDS011;54576;52.020;5.536;2023-01-31T05:04:26;41.88;;;9.30;;
67776;SDS011;54576;52.020;5.536;2023-01-31T05:06:51;30.30;;;7.55;;
67776;SDS011;54576;52.020;5.536;2023-01-31T05:09:17;37.20;;;7.32;;
67776;SDS011;54576;52.020;5.536;2023-01-31T05:11:42;41.35;;;8.70;;
67776;SDS011;54576;52.020;5.536;2023-01-31T05:14:08;40.08;;;8.00;;
67776;SDS011;54576;52.020;5.536;2023-01-31T05:16:37;54.45;;;7.93;;
67776;SDS011;54576;52.020;5.536;2023-01-31T05:19:04;43.78;;;7.82;;
67776;SDS011;54576;52.020;5.536;2023-01-31T05:21:31;34.13;;;7.90;;
67776;SDS011;54576;52.020;5.536;2023-01-31T05:24:16;43.97;;;7.72;;
67776;SDS011;54576;52.020;5.536;2023-01-31T05:26:44;41.35;;;7.80;;
67776;SDS011;54576;52.020;5.536;2023-01-31T05:29:09;40.45;;;8.45;;
67776;SDS011;54576;52.020;5.536;2023-01-31T05:31:36;33.92;;;8.45;;
67776;SDS011;54576;52.020;5.536;2023-01-31T05:34:09;35.85;;;8.63;;
67776;SDS011;54576;52.020;5.536;2023-01-31T05:36:47;36.20;;;7.05;;
67776;SDS011;54576;52.020;5.536;2023-01-31T05:39:12;39.30;;;7.70;;
67776;SDS011;54576;52.020;5.536;2023-01-31T05:41:38;44.05;;;8.75;;
67776;SDS011;54576;52.020;5.536;2023-01-31T05:44:03;36.63;;;8.05;;
67776;SDS011;54576;52.020;5.536;2023-01-31T05:46:33;31.40;;;7.75;;
67776;SDS011;54576;52.020;5.536;2023-01-31T05:48:59;35.08;;;7.43;;
67776;SDS011;54576;52.020;5.536;2023-01-31T05:51:25;45.95;;;7.22;;
67776;SDS011;54576;52.020;5.536;2023-01-31T05:53:50;38.55;;;6.47;;
67776;SDS011;54576;52.020;5.536;2023-01-31T05:56:16;36.60;;;8.40;;
67776;SDS011;54576;52.020;5.536;2023-01-31T05:58:45;32.97;;;7.57;;
67776;SDS011;54576;52.020;5.536;2023-01-31T06:01:14;22.35;;;6.80;;
67776;SDS011;54576;52.020;5.536;2023-01-31T06:03:41;31.65;;;6.72;;
67776;SDS011;54576;52.020;5.536;2023-01-31T06:06:11;29.92;;;6.32;;
67776;SDS011;54576;52.020;5.536;2023-01-31T06:08:37;43.78;;;7.05;;
67776;SDS011;54576;52.020;5.536;2023-01-31T06:11:03;32.80;;;7.25;;
67776;SDS011;54576;52.020;5.536;2023-01-31T06:13:29;36.92;;;6.47;;
67776;SDS011;54576;52.020;5.536;2023-01-31T06:16:00;26.73;;;6.55;;
67776;SDS011;54576;52.020;5.536;2023-01-31T06:18:25;41.25;;;8.65;;
67776;SDS011;54576;52.020;5.536;2023-01-31T06:20:51;40.38;;;6.78;;
67776;SDS011;54576;52.020;5.536;2023-01-31T06:23:18;34.60;;;7.40;;
67776;SDS011;54576;52.020;5.536;2023-01-31T06:25:43;40.60;;;8.60;;
67776;SDS011;54576;52.020;5.536;2023-01-31T06:28:12;40.85;;;7.15;;
67776;SDS011;54576;52.020;5.536;2023-01-31T06:30:41;44.00;;;7.07;;
67776;SDS011;54576;52.020;5.536;2023-01-31T06:33:07;39.72;;;6.60;;
67776;SDS011;54576;52.020;5.536;2023-01-31T06:35:33;28.23;;;6.90;;
67776;SDS011;54576;52.020;5.536;2023-01-31T06:37:59;37.75;;;7.68;;
67776;SDS011;54576;52.020;5.536;2023-01-31T06:40:25;33.05;;;6.50;;
67776;SDS011;54576;52.020;5.536;2023-01-31T06:42:50;40.58;;;8.15;;
67776;SDS011;54576;52.020;5.536;2023-01-31T06:45:16;43.03;;;7.80;;
67776;SDS011;54576;52.020;5.536;2023-01-31T06:47:43;25.65;;;6.05;;
67776;SDS011;54576;52.020;5.536;2023-01-31T06:50:10;34.60;;;6.57;;
67776;SDS011;54576;52.020;5.536;2023-01-31T06:52:36;37.83;;;6.97;;
67776;SDS011;54576;52.020;5.536;2023-01-31T06:55:02;24.73;;;5.85;;
67776;SDS011;54576;52.020;5.536;2023-01-31T06:57:28;34.03;;;5.80;;
67776;SDS011;54576;52.020;5.536;2023-01-31T06:59:53;41.53;;;7.07;;
67776;SDS011;54576;52.020;5.536;2023-01-31T07:02:19;31.33;;;6.57;;
67776;SDS011;54576;52.020;5.536;2023-01-31T07:04:45;31.65;;;6.35;;
67776;SDS011;54576;52.020;5.536;2023-01-31T07:07:10;34.90;;;6.70;;
67776;SDS011;54576;52.020;5.536;2023-01-31T07:09:36;32.28;;;6.13;;
67776;SDS011;54576;52.020;5.536;2023-01-31T07:12:01;34.55;;;6.55;;
67776;SDS011;54576;52.020;5.536;2023-01-31T07:14:27;30.25;;;6.47;;
67776;SDS011;54576;52.020;5.536;2023-01-31T07:16:52;27.25;;;6.55;;
67776;SDS011;54576;52.020;5.536;2023-01-31T07:19:18;36.22;;;7.43;;
67776;SDS011;54576;52.020;5.536;2023-01-31T07:21:44;29.45;;;6.07;;
67776;SDS011;54576;52.020;5.536;2023-01-31T07:24:11;30.50;;;5.72;;
67776;SDS011;54576;52.020;5.536;2023-01-31T07:26:36;35.67;;;7.22;;
67776;SDS011;54576;52.020;5.536;2023-01-31T07:29:02;39.33;;;7.30;;
67776;SDS011;54576;52.020;5.536;2023-01-31T07:31:27;31.77;;;5.80;;
67776;SDS011;54576;52.020;5.536;2023-01-31T07:33:53;25.67;;;6.95;;
67776;SDS011;54576;52.020;5.536;2023-01-31T07:36:18;36.85;;;6.13;;
67776;SDS011;54576;52.020;5.536;2023-01-31T07:38:51;26.33;;;5.10;;
67776;SDS011;54576;52.020;5.536;2023-01-31T07:41:18;30.45;;;6.22;;
67776;SDS011;54576;52.020;5.536;2023-01-31T07:43:44;28.10;;;5.88;;
67776;SDS011;54576;52.020;5.536;2023-01-31T07:46:09;25.58;;;6.03;;
67776;SDS011;54576;52.020;5.536;2023-01-31T07:48:35;18.88;;;5.53;;
67776;SDS011;54576;52.020;5.536;2023-01-31T07:51:01;25.88;;;5.80;;
67776;SDS011;54576;52.020;5.536;2023-01-31T07:53:28;33.28;;;6.60;;
67776;SDS011;54576;52.020;5.536;2023-01-31T07:56:03;36.58;;;6.05;;
67776;SDS011;54576;52.020;5.536;2023-01-31T07:58:34;30.42;;;5.70;;
67776;SDS011;54576;52.020;5.536;2023-01-31T08:01:00;23.77;;;4.90;;
67776;SDS011;54576;52.020;5.536;2023-01-31T08:03:44;26.48;;;6.15;;
67776;SDS011;54576;52.020;5.536;2023-01-31T08:06:10;32.72;;;5.85;;
67776;SDS011;54576;52.020;5.536;2023-01-31T08:08:38;28.25;;;5.63;;
67776;SDS011;54576;52.020;5.536;2023-01-31T08:11:04;34.53;;;6.80;;
67776;SDS011;54576;52.020;5.536;2023-01-31T08:13:31;19.65;;;5.50;;
67776;SDS011;54576;52.020;5.536;2023-01-31T08:15:58;31.02;;;5.50;;
67776;SDS011;54576;52.020;5.536;2023-01-31T08:18:23;41.65;;;5.68;;
67776;SDS011;54576;52.020;5.536;2023-01-31T08:20:49;26.55;;;6.00;;
67776;SDS011;54576;52.020;5.536;2023-01-31T08:23:15;21.60;;;5.18;;
67776;SDS011;54576;52.020;5.536;2023-01-31T08:25:41;26.00;;;4.72;;
67776;SDS011;54576;52.020;5.536;2023-01-31T08:28:06;25.27;;;4.38;;
67776;SDS011;54576;52.020;5.536;2023-01-31T08:30:32;41.38;;;5.85;;
67776;SDS011;54576;52.020;5.536;2023-01-31T08:32:58;24.52;;;5.30;;
67776;SDS011;54576;52.020;5.536;2023-01-31T08:35:25;28.55;;;5.68;;
67776;SDS011;54576;52.020;5.536;2023-01-31T08:37:51;31.20;;;5.35;;
67776;SDS011;54576;52.020;5.536;2023-01-31T08:40:17;34.00;;;5.60;;
67776;SDS011;54576;52.020;5.536;2023-01-31T08:42:43;26.30;;;4.90;;
67776;SDS011;54576;52.020;5.536;2023-01-31T08:45:17;23.65;;;4.40;;
67776;SDS011;54576;52.020;5.536;2023-01-31T08:47:42;34.72;;;4.75;;
67776;SDS011;54576;52.020;5.536;2023-01-31T08:50:08;32.33;;;5.30;;
67776;SDS011;54576;52.020;5.536;2023-01-31T08:52:34;26.92;;;5.22;;
67776;SDS011;54576;52.020;5.536;2023-01-31T08:55:00;25.38;;;4.63;;
67776;SDS011;54576;52.020;5.536;2023-01-31T08:57:25;22.17;;;4.90;;
67776;SDS011;54576;52.020;5.536;2023-01-31T08:59:51;28.08;;;5.57;;
67776;SDS011;54576;52.020;5.536;2023-01-31T09:02:16;29.05;;;5.60;;
67776;SDS011;54576;52.020;5.536;2023-01-31T09:04:42;36.42;;;5.10;;
67776;SDS011;54576;52.020;5.536;2023-01-31T09:07:08;20.15;;;4.88;;
67776;SDS011;54576;52.020;5.536;2023-01-31T09:09:33;38.42;;;5.50;;
67776;SDS011;54576;52.020;5.536;2023-01-31T09:11:59;20.48;;;4.45;;
67776;SDS011;54576;52.020;5.536;2023-01-31T09:14:25;27.80;;;6.05;;
67776;SDS011;54576;52.020;5.536;2023-01-31T09:16:51;22.90;;;5.15;;
67776;SDS011;54576;52.020;5.536;2023-01-31T09:19:17;29.77;;;5.57;;
67776;SDS011;54576;52.020;5.536;2023-01-31T09:21:43;31.15;;;5.88;;
67776;SDS011;54576;52.020;5.536;2023-01-31T09:24:09;30.13;;;5.20;;
67776;SDS011;54576;52.020;5.536;2023-01-31T09:26:35;26.88;;;4.80;;
67776;SDS011;54576;52.020;5.536;2023-01-31T09:29:01;31.88;;;5.57;;
67776;SDS011;54576;52.020;5.536;2023-01-31T09:31:27;26.63;;;5.18;;
67776;SDS011;54576;52.020;5.536;2023-01-31T09:33:54;17.95;;;4.30;;
67776;SDS011;54576;52.020;5.536;2023-01-31T09:36:20;21.83;;;4.78;;
67776;SDS011;54576;52.020;5.536;2023-01-31T09:38:46;32.00;;;4.55;;
67776;SDS011;54576;52.020;5.536;2023-01-31T09:43:42;21.75;;;5.15;;
67776;SDS011;54576;52.020;5.536;2023-01-31T09:46:11;25.92;;;4.75;;
67776;SDS011;54576;52.020;5.536;2023-01-31T09:48:39;24.30;;;4.65;;
67776;SDS011;54576;52.020;5.536;2023-01-31T09:51:08;29.70;;;4.85;;
67776;SDS011;54576;52.020;5.536;2023-01-31T09:53:35;17.55;;;3.55;;
67776;SDS011;54576;52.020;5.536;2023-01-31T09:58:45;31.55;;;5.28;;
67776;SDS011;54576;52.020;5.536;2023-01-31T10:01:24;26.83;;;5.57;;
67776;SDS011;54576;52.020;5.536;2023-01-31T10:06:20;29.65;;;5.32;;
67776;SDS011;54576;52.020;5.536;2023-01-31T10:11:30;23.73;;;4.80;;
67776;SDS011;54576;52.020;5.536;2023-01-31T10:14:00;26.20;;;5.30;;
67776;SDS011;54576;52.020;5.536;2023-01-31T10:16:30;20.77;;;4.80;;
67776;SDS011;54576;52.020;5.536;2023-01-31T10:18:58;22.95;;;4.13;;
67776;SDS011;54576;52.020;5.536;2023-01-31T10:23:54;25.42;;;5.45;;
67776;SDS011;54576;52.020;5.536;2023-01-31T10:28:58;27.40;;;5.70;;
67776;SDS011;54576;52.020;5.536;2023-01-31T10:31:45;31.58;;;4.63;;
67776;SDS011;54576;52.020;5.536;2023-01-31T10:34:14;29.92;;;5.10;;
67776;SDS011;54576;52.020;5.536;2023-01-31T10:36:44;25.80;;;4.80;;
67776;SDS011;54576;52.020;5.536;2023-01-31T10:39:20;24.95;;;4.63;;
67776;SDS011;54576;52.020;5.536;2023-01-31T10:47:13;21.48;;;4.30;;
67776;SDS011;54576;52.020;5.536;2023-01-31T10:49:41;17.98;;;4.55;;
67776;SDS011;54576;52.020;5.536;2023-01-31T10:59:51;27.13;;;5.10;;
67776;SDS011;54576;52.020;5.536;2023-01-31T11:02:27;20.17;;;4.03;;
67776;SDS011;54576;52.020;5.536;2023-01-31T11:04:55;21.00;;;4.47;;
67776;SDS011;54576;52.020;5.536;2023-01-31T11:07:21;30.40;;;5.65;;
67776;SDS011;54576;52.020;5.536;2023-01-31T11:09:51;24.67;;;4.45;;
67776;SDS011;54576;52.020;5.536;2023-01-31T11:12:22;25.42;;;4.85;;
67776;SDS011;54576;52.020;5.536;2023-01-31T11:15:04;26.20;;;4.80;;
67776;SDS011;54576;52.020;5.536;2023-01-31T11:17:31;22.85;;;4.63;;
67776;SDS011;54576;52.020;5.536;2023-01-31T11:19:58;25.92;;;4.35;;
67776;SDS011;54576;52.020;5.536;2023-01-31T11:22:25;32.30;;;5.03;;
67776;SDS011;54576;52.020;5.536;2023-01-31T11:24:51;19.50;;;3.95;;
67776;SDS011;54576;52.020;5.536;2023-01-31T11:29:50;27.67;;;4.75;;
67776;SDS011;54576;52.020;5.536;2023-01-31T11:32:22;16.15;;;4.05;;
67776;SDS011;54576;52.020;5.536;2023-01-31T11:37:21;30.95;;;4.43;;
67776;SDS011;54576;52.020;5.536;2023-01-31T11:40:00;29.27;;;4.88;;
67776;SDS011;54576;52.020;5.536;2023-01-31T11:42:26;24.73;;;4.55;;
67776;SDS011;54576;52.020;5.536;2023-01-31T11:44:56;28.08;;;4.82;;
67776;SDS011;54576;52.020;5.536;2023-01-31T11:47:24;29.92;;;4.88;;
67776;SDS011;54576;52.020;5.536;2023-01-31T11:49:54;22.17;;;3.67;;
67776;SDS011;54576;52.020;5.536;2023-01-31T11:52:20;22.08;;;4.63;;
67776;SDS011;54576;52.020;5.536;2023-01-31T11:54:56;27.17;;;3.95;;
67776;SDS011;54576;52.020;5.536;2023-01-31T11:57:23;23.83;;;4.22;;
67776;SDS011;54576;52.020;5.536;2023-01-31T11:59:50;33.05;;;4.47;;
67776;SDS011;54576;52.020;5.536;2023-01-31T12:02:21;26.35;;;3.38;;
67776;SDS011;54576;52.020;5.536;2023-01-31T12:04:51;33.53;;;4.30;;
67776;SDS011;54576;52.020;5.536;2023-01-31T12:07:41;29.35;;;4.28;;
67776;SDS011;54576;52.020;5.536;2023-01-31T12:13:10;27.13;;;4.25;;
67776;SDS011;54576;52.020;5.536;2023-01-31T12:15:44;31.38;;;4.47;;
67776;SDS011;54576;52.020;5.536;2023-01-31T12:18:13;21.27;;;4.10;;
67776;SDS011;54576;52.020;5.536;2023-01-31T12:20:52;28.33;;;4.63;;
67776;SDS011;54576;52.020;5.536;2023-01-31T12:26:29;18.83;;;3.65;;
67776;SDS011;54576;52.020;5.536;2023-01-31T12:29:06;20.33;;;3.63;;
67776;SDS011;54576;52.020;5.536;2023-01-31T12:31:49;17.38;;;3.00;;
67776;SDS011;54576;52.020;5.536;2023-01-31T12:34:53;18.33;;;3.70;;
67776;SDS011;54576;52.020;5.536;2023-01-31T12:43:19;15.93;;;3.53;;
67776;SDS011;54576;52.020;5.536;2023-01-31T12:46:16;18.67;;;3.90;;
67776;SDS011;54576;52.020;5.536;2023-01-31T13:08:50;19.40;;;3.67;;
67776;SDS011;54576;52.020;5.536;2023-01-31T13:11:43;31.23;;;4.72;;
67776;SDS011;54576;52.020;5.536;2023-01-31T13:14:23;9.93;;;3.20;;
67776;SDS011;54576;52.020;5.536;2023-01-31T13:16:54;17.60;;;3.92;;
67776;SDS011;54576;52.020;5.536;2023-01-31T13:19:30;38.30;;;4.68;;
67776;SDS011;54576;52.020;5.536;2023-01-31T13:22:21;28.10;;;4.55;;
67776;SDS011;54576;52.020;5.536;2023-01-31T13:25:05;20.65;;;3.70;;
67776;SDS011;54576;52.020;5.536;2023-01-31T13:27:46;19.90;;;3.97;;
67776;SDS011;54576;52.020;5.536;2023-01-31T13:30:27;30.27;;;4.30;;
67776;SDS011;54576;52.020;5.536;2023-01-31T13:35:47;24.63;;;4.25;;
67776;SDS011;54576;52.020;5.536;2023-01-31T13:38:36;26.63;;;4.43;;
67776;SDS011;54576;52.020;5.536;2023-01-31T13:41:05;34.50;;;4.28;;
67776;SDS011;54576;52.020;5.536;2023-01-31T13:43:36;28.23;;;4.97;;
67776;SDS011;54576;52.020;5.536;2023-01-31T13:46:04;35.75;;;4.63;;
67776;SDS011;54576;52.020;5.536;2023-01-31T13:48:45;29.77;;;4.45;;
67776;SDS011;54576;52.020;5.536;2023-01-31T13:51:34;31.80;;;4.65;;
67776;SDS011;54576;52.020;5.536;2023-01-31T13:54:15;23.80;;;3.35;;
67776;SDS011;54576;52.020;5.536;2023-01-31T13:56:51;27.80;;;4.45;;
67776;SDS011;54576;52.020;5.536;2023-01-31T13:59:25;36.15;;;5.30;;
67776;SDS011;54576;52.020;5.536;2023-01-31T14:01:52;28.30;;;4.30;;
67776;SDS011;54576;52.020;5.536;2023-01-31T14:04:20;23.95;;;4.18;;
67776;SDS011;54576;52.020;5.536;2023-01-31T14:09:28;22.95;;;3.58;;
67776;SDS011;54576;52.020;5.536;2023-01-31T14:11:55;20.05;;;4.20;;
67776;SDS011;54576;52.020;5.536;2023-01-31T14:32:43;27.17;;;3.72;;
67776;SDS011;54576;52.020;5.536;2023-01-31T14:37:41;13.02;;;3.15;;
67776;SDS011;54576;52.020;5.536;2023-01-31T14:58:41;11.90;;;3.08;;
67776;SDS011;54576;52.020;5.536;2023-01-31T15:01:09;14.25;;;2.45;;
67776;SDS011;54576;52.020;5.536;2023-01-31T15:03:37;18.63;;;2.53;;
67776;SDS011;54576;52.020;5.536;2023-01-31T15:06:11;12.15;;;2.35;;
67776;SDS011;54576;52.020;5.536;2023-01-31T15:08:44;17.52;;;2.83;;
67776;SDS011;54576;52.020;5.536;2023-01-31T15:13:44;5.85;;;1.23;;
67776;SDS011;54576;52.020;5.536;2023-01-31T15:21:32;23.95;;;2.42;;
67776;SDS011;54576;52.020;5.536;2023-01-31T15:23:59;10.80;;;2.13;;
67776;SDS011;54576;52.020;5.536;2023-01-31T15:26:27;12.30;;;2.40;;
67776;SDS011;54576;52.020;5.536;2023-01-31T15:28:53;20.23;;;2.60;;
67776;SDS011;54576;52.020;5.536;2023-01-31T15:31:22;13.00;;;2.22;;
67776;SDS011;54576;52.020;5.536;2023-01-31T15:33:50;18.52;;;3.00;;
67776;SDS011;54576;52.020;5.536;2023-01-31T15:36:27;15.40;;;2.85;;
67776;SDS011;54576;52.020;5.536;2023-01-31T15:38:56;16.60;;;2.20;;
67776;SDS011;54576;52.020;5.536;2023-01-31T15:43:50;9.63;;;2.33;;
67776;SDS011;54576;52.020;5.536;2023-01-31T15:46:24;12.25;;;2.35;;
67776;SDS011;54576;52.020;5.536;2023-01-31T15:48:51;17.73;;;2.60;;
67776;SDS011;54576;52.020;5.536;2023-01-31T15:51:17;16.70;;;2.65;;
67776;SDS011;54576;52.020;5.536;2023-01-31T15:53:43;17.42;;;2.38;;
67776;SDS011;54576;52.020;5.536;2023-01-31T15:56:15;23.83;;;4.10;;
67776;SDS011;54576;52.020;5.536;2023-01-31T15:58:44;20.05;;;3.42;;
67776;SDS011;54576;52.020;5.536;2023-01-31T16:01:11;13.65;;;2.22;;
67776;SDS011;54576;52.020;5.536;2023-01-31T16:03:39;19.80;;;3.03;;
67776;SDS011;54576;52.020;5.536;2023-01-31T16:06:11;18.63;;;3.60;;
67776;SDS011;54576;52.020;5.536;2023-01-31T16:08:41;14.48;;;2.88;;
67776;SDS011;54576;52.020;5.536;2023-01-31T16:11:08;24.92;;;3.20;;
67776;SDS011;54576;52.020;5.536;2023-01-31T16:13:37;27.40;;;3.00;;
67776;SDS011;54576;52.020;5.536;2023-01-31T16:16:04;15.60;;;2.42;;
67776;SDS011;54576;52.020;5.536;2023-01-31T16:18:34;16.55;;;3.08;;
67776;SDS011;54576;52.020;5.536;2023-01-31T16:21:11;21.85;;;4.18;;
67776;SDS011;54576;52.020;5.536;2023-01-31T16:23:38;18.73;;;2.97;;
67776;SDS011;54576;52.020;5.536;2023-01-31T16:26:09;21.95;;;4.18;;
67776;SDS011;54576;52.020;5.536;2023-01-31T16:28:38;16.77;;;2.88;;
67776;SDS011;54576;52.020;5.536;2023-01-31T16:31:11;14.98;;;2.63;;
67776;SDS011;54576;52.020;5.536;2023-01-31T16:33:48;14.60;;;2.58;;
67776;SDS011;54576;52.020;5.536;2023-01-31T16:36:14;22.02;;;3.65;;
67776;SDS011;54576;52.020;5.536;2023-01-31T16:38:41;18.90;;;4.65;;
67776;SDS011;54576;52.020;5.536;2023-01-31T16:41:08;23.20;;;3.83;;
67776;SDS011;54576;52.020;5.536;2023-01-31T16:43:37;13.57;;;2.70;;
67776;SDS011;54576;52.020;5.536;2023-01-31T16:46:06;25.38;;;3.67;;
67776;SDS011;54576;52.020;5.536;2023-01-31T16:49:04;20.05;;;2.83;;
67776;SDS011;54576;52.020;5.536;2023-01-31T16:51:43;21.95;;;4.25;;
67776;SDS011;54576;52.020;5.536;2023-01-31T16:56:42;24.38;;;4.75;;
67776;SDS011;54576;52.020;5.536;2023-01-31T17:04:49;27.33;;;3.80;;
67776;SDS011;54576;52.020;5.536;2023-01-31T17:07:22;24.25;;;3.95;;
67776;SDS011;54576;52.020;5.536;2023-01-31T17:09:57;20.33;;;4.43;;
67776;SDS011;54576;52.020;5.536;2023-01-31T17:12:28;23.58;;;5.55;;
67776;SDS011;54576;52.020;5.536;2023-01-31T17:14:56;22.48;;;4.30;;
67776;SDS011;54576;52.020;5.536;2023-01-31T17:17:26;21.25;;;5.30;;
67776;SDS011;54576;52.020;5.536;2023-01-31T17:19:57;22.92;;;4.45;;
67776;SDS011;54576;52.020;5.536;2023-01-31T17:22:23;27.10;;;7.78;;
67776;SDS011;54576;52.020;5.536;2023-01-31T17:24:52;29.15;;;10.13;;
67776;SDS011;54576;52.020;5.536;2023-01-31T17:27:18;26.97;;;5.43;;
67776;SDS011;54576;52.020;5.536;2023-01-31T17:29:45;30.63;;;5.60;;
67776;SDS011;54576;52.020;5.536;2023-01-31T17:32:13;25.30;;;3.70;;
67776;SDS011;54576;52.020;5.536;2023-01-31T17:34:40;26.90;;;5.97;;
67776;SDS011;54576;52.020;5.536;2023-01-31T17:37:06;21.30;;;3.47;;
67776;SDS011;54576;52.020;5.536;2023-01-31T17:39:32;25.15;;;3.33;;
67776;SDS011;54576;52.020;5.536;2023-01-31T17:41:58;25.48;;;3.33;;
67776;SDS011;54576;52.020;5.536;2023-01-31T17:44:24;29.02;;;3.72;;
67776;SDS011;54576;52.020;5.536;2023-01-31T17:46:49;24.92;;;4.32;;
67776;SDS011;54576;52.020;5.536;2023-01-31T17:49:15;25.42;;;4.82;;
67776;SDS011;54576;52.020;5.536;2023-01-31T17:51:41;16.85;;;3.50;;